Time;durP1;ratioP1;P1;durP2;ratioP2;P2;SDS_P1;SDS_P2;PMS_P1;PMS_P2;Temp;Humidity;BMP_temperature;BMP_pressure;BME280_temperature;BME280_humidity;BME280_pressure;Samples;Min_cycle;Max_cycle;Signal;HPM_P1;HPM_P2
2024/01/30 00:03:00;;;;;;;41.53;25.25;;;;;;;3.28;nan;102547.91;10303259;28;20053;-78
2024/01/30 00:08:01;;;;;;;41.35;25.75;;;;;;;3.21;nan;102558.59;10304329;28;20065;-78
2024/01/30 00:13:02;;;;;;;38.90;24.38;;;;;;;3.15;nan;102566.56;10307015;28;20077;-81
2024/01/30 00:18:02;;;;;;;42.38;26.10;;;;;;;3.10;nan;102558.03;10288732;28;20053;-79
2024/01/30 00:23:03;;;;;;;43.25;25.75;;;;;;;3.00;nan;102553.56;10317284;28;20102;-79
2024/01/30 00:28:03;;;;;;;42.45;26.25;;;;;;;2.97;nan;102561.22;10314827;28;20038;-76
2024/01/30 00:33:04;;;;;;;36.83;25.08;;;;;;;2.88;nan;102549.44;10331952;28;20050;-79
2024/01/30 00:38:06;;;;;;;40.33;24.65;;;;;;;2.90;nan;102565.59;10319742;28;20045;-80
2024/01/30 00:43:07;;;;;;;38.60;25.42;;;;;;;2.86;nan;102546.03;10319642;28;20039;-78
2024/01/30 00:48:07;;;;;;;40.05;25.30;;;;;;;2.90;nan;102554.72;10311555;28;20050;-79
2024/01/30 00:53:08;;;;;;;43.35;27.17;;;;;;;2.87;nan;102547.72;10314689;28;20046;-80
2024/01/30 00:58:08;;;;;;;38.28;26.20;;;;;;;3.06;nan;102545.75;10317376;28;20042;-80
2024/01/30 01:03:09;;;;;;;35.95;24.30;;;;;;;3.00;nan;102539.97;10307690;28;20051;-80
2024/01/30 01:08:09;;;;;;;38.10;25.77;;;;;;;2.94;nan;102529.75;10328211;28;20031;-80
2024/01/30 01:13:09;;;;;;;42.40;25.02;;;;;;;2.88;nan;102546.72;10307519;28;20053;-79
2024/01/30 01:18:10;;;;;;;39.40;23.83;;;;;;;2.70;nan;102507.88;10313718;28;20039;-80
2024/01/30 01:23:10;;;;;;;41.97;24.48;;;;;;;2.67;nan;102502.72;10315697;28;20353;-80
2024/01/30 01:28:11;;;;;;;46.22;27.17;;;;;;;2.71;nan;102515.00;10317284;28;20039;-79
2024/01/30 01:33:14;;;;;;;43.63;24.60;;;;;;;2.70;nan;102518.75;10314454;28;20039;-80
2024/01/30 01:38:14;;;;;;;45.08;26.77;;;;;;;2.56;nan;102503.88;10313216;28;20043;-80
2024/01/30 01:43:14;;;;;;;38.55;24.45;;;;;;;2.62;nan;102514.97;10305547;28;20049;-80
2024/01/30 01:48:15;;;;;;;40.83;25.20;;;;;;;2.49;nan;102490.06;10305480;28;20086;-80
2024/01/30 01:53:15;;;;;;;39.35;24.02;;;;;;;2.49;nan;102490.06;10333838;28;20038;-80
2024/01/30 01:58:16;;;;;;;44.67;25.45;;;;;;;2.54;nan;102493.19;10304053;28;20482;-79
2024/01/30 02:03:16;;;;;;;38.08;23.27;;;;;;;2.55;nan;102503.03;10305475;28;20069;-78
2024/01/30 02:08:17;;;;;;;46.70;26.08;;;;;;;2.61;nan;102499.66;10315502;28;20061;-77
2024/01/30 02:13:17;;;;;;;44.85;25.85;;;;;;;2.73;nan;102510.25;10314740;28;20066;-78
2024/01/30 02:18:19;;;;;;;47.30;26.77;;;;;;;2.62;nan;102474.19;10302929;28;20050;-77
2024/01/30 02:23:20;;;;;;;46.72;27.05;;;;;;;2.66;nan;102458.38;10296159;28;20053;-77
2024/01/30 02:28:20;;;;;;;42.65;26.38;;;;;;;2.71;nan;102455.16;10298082;28;20491;-77
2024/01/30 02:33:23;;;;;;;44.70;27.55;;;;;;;2.89;nan;102469.50;10305196;28;20051;-77
2024/01/30 02:38:26;;;;;;;43.13;26.02;;;;;;;3.03;nan;102459.88;10311738;28;20065;-77
2024/01/30 02:43:27;;;;;;;45.40;27.23;;;;;;;3.13;nan;102463.31;10319675;28;20042;-78
2024/01/30 02:48:27;;;;;;;44.13;27.60;;;;;;;3.24;nan;102456.69;10321983;28;20038;-77
2024/01/30 02:53:27;;;;;;;43.40;26.77;;;;;;;3.20;nan;102433.56;10306657;28;20034;-78
2024/01/30 02:58:28;;;;;;;43.10;27.17;;;;;;;3.30;nan;102441.56;10318574;28;20035;-78
2024/01/30 03:03:28;;;;;;;45.10;26.67;;;;;;;3.28;nan;102447.19;10306636;28;20069;-77
2024/01/30 03:08:29;;;;;;;43.13;28.50;;;;;;;3.32;nan;102429.50;10299136;28;20050;-77
2024/01/30 03:13:29;;;;;;;51.95;29.52;;;;;;;3.57;nan;102440.41;10308265;28;20027;-77
2024/01/30 03:18:30;;;;;;;44.30;28.45;;;;;;;3.68;nan;102429.19;10323262;28;20049;-77
2024/01/30 03:23:32;;;;;;;42.47;26.85;;;;;;;3.61;nan;102418.09;10313638;28;20040;-78
2024/01/30 03:28:33;;;;;;;46.60;29.08;;;;;;;3.59;nan;102411.13;10319865;28;20075;-77
2024/01/30 03:33:34;;;;;;;46.25;28.20;;;;;;;3.46;nan;102387.16;10311006;28;20043;-78
2024/01/30 03:38:34;;;;;;;46.45;28.00;;;;;;;3.60;nan;102401.97;10316936;28;20038;-78
2024/01/30 03:43:35;;;;;;;45.60;28.42;;;;;;;3.61;nan;102390.03;10316054;28;20482;-78
2024/01/30 03:48:35;;;;;;;45.90;28.35;;;;;;;3.64;nan;102386.97;10312867;28;21049;-78
2024/01/30 03:53:36;;;;;;;45.22;28.73;;;;;;;3.68;nan;102399.22;10314589;28;20042;-79
2024/01/30 03:58:36;;;;;;;47.88;28.55;;;;;;;3.63;nan;102374.38;10317897;28;20104;-79
2024/01/30 04:03:37;;;;;;;46.50;28.23;;;;;;;3.75;nan;102389.34;10312844;28;20051;-78
2024/01/30 04:08:37;;;;;;;47.15;27.10;;;;;;;3.73;nan;102387.81;10312625;28;20050;-71
2024/01/30 04:13:38;;;;;;;44.20;29.05;;;;;;;3.69;nan;102394.63;10317464;28;20080;-78
2024/01/30 04:18:38;;;;;;;40.85;27.83;;;;;;;3.68;nan;102339.31;10305741;28;20038;-78
2024/01/30 04:23:40;;;;;;;42.00;27.35;;;;;;;3.95;nan;102375.31;10312790;28;20281;-78
2024/01/30 04:28:44;;;;;;;42.20;26.52;;;;;;;3.85;nan;102372.81;10308573;28;20042;-78
2024/01/30 04:33:45;;;;;;;45.65;27.95;;;;;;;3.94;nan;102362.75;10302766;28;20054;-78
2024/01/30 04:38:45;;;;;;;44.40;28.38;;;;;;;3.53;nan;102292.00;10318976;28;20038;-79
2024/01/30 04:43:46;;;;;;;43.65;27.05;;;;;;;3.87;nan;102348.97;10322893;28;20047;-78
2024/01/30 04:48:46;;;;;;;43.67;28.05;;;;;;;3.95;nan;102361.69;10320777;28;20034;-78
2024/01/30 04:53:47;;;;;;;39.08;25.85;;;;;;;3.95;nan;102356.25;10304118;28;20050;-78
2024/01/30 04:58:47;;;;;;;51.88;28.95;;;;;;;3.96;nan;102341.63;10315406;28;20407;-78
2024/01/30 05:03:48;;;;;;;49.70;29.38;;;;;;;4.11;nan;102339.84;10313080;28;20065;-78
2024/01/30 05:08:48;;;;;;;39.40;26.40;;;;;;;4.18;nan;102353.66;10310054;28;20414;-78
2024/01/30 05:13:48;;;;;;;41.50;27.33;;;;;;;4.24;nan;102355.69;10306011;28;20125;-71
2024/01/30 05:18:49;;;;;;;44.65;28.50;;;;;;;4.30;nan;102344.06;10311577;28;20046;-78
2024/01/30 05:23:49;;;;;;;49.53;30.13;;;;;;;4.39;nan;102343.00;10305341;28;20043;-78
2024/01/30 05:28:50;;;;;;;43.80;28.48;;;;;;;4.45;nan;102325.06;10316435;28;20386;-78
2024/01/30 05:33:50;;;;;;;43.10;28.02;;;;;;;4.35;nan;102292.56;10319902;28;20050;-78
2024/01/30 05:38:51;;;;;;;48.50;29.35;;;;;;;4.50;nan;102309.03;10301194;28;20080;-78
2024/01/30 05:43:54;;;;;;;48.53;30.95;;;;;;;4.59;nan;102304.38;10303053;28;20511;-78
2024/01/30 05:48:55;;;;;;;46.50;28.23;;;;;;;4.61;nan;102291.38;10302413;28;20055;-78
2024/01/30 05:53:55;;;;;;;48.83;28.10;;;;;;;4.64;nan;102291.88;10308787;28;20049;-78
2024/01/30 05:58:56;;;;;;;49.50;27.88;;;;;;;4.77;nan;102301.34;10294216;28;20042;-77
2024/01/30 06:03:56;;;;;;;46.58;27.85;;;;;;;4.76;nan;102278.69;10316019;28;20042;-78
2024/01/30 06:08:57;;;;;;;41.85;27.08;;;;;;;4.88;nan;102287.31;10321857;28;20065;-77
2024/01/30 06:13:57;;;;;;;45.40;26.55;;;;;;;4.92;nan;102298.69;10313040;28;20042;-74
2024/01/30 06:18:59;;;;;;;46.67;27.65;;;;;;;5.05;nan;102316.16;10319067;28;20046;-78
2024/01/30 06:24:00;;;;;;;42.47;26.75;;;;;;;5.13;nan;102318.00;10322494;28;20117;-78
2024/01/30 06:29:00;;;;;;;41.85;25.45;;;;;;;5.03;nan;102290.09;10301835;28;20041;-78
2024/01/30 06:34:00;;;;;;;42.63;25.60;;;;;;;5.18;nan;102303.78;10316730;28;20034;-78
2024/01/30 06:39:04;;;;;;;41.60;24.63;;;;;;;5.10;nan;102301.13;10299822;28;20039;-77
2024/01/30 06:44:06;;;;;;;35.05;23.33;;;;;;;5.07;nan;102317.88;10322526;28;20042;-77
2024/01/30 06:49:06;;;;;;;39.22;24.27;;;;;;;5.11;nan;102330.13;10310607;28;20062;-77
2024/01/30 06:54:07;;;;;;;41.45;23.67;;;;;;;5.11;nan;102320.06;10310462;28;20045;-77
2024/01/30 06:59:08;;;;;;;35.28;20.55;;;;;;;5.09;nan;102316.66;10321788;28;20471;-78
2024/01/30 07:04:08;;;;;;;32.38;23.02;;;;;;;5.16;nan;102305.84;10317095;28;20034;-78
2024/01/30 07:09:09;;;;;;;32.80;20.85;;;;;;;5.26;nan;102311.91;10299550;28;20039;-78
2024/01/30 07:14:09;;;;;;;33.97;22.58;;;;;;;5.41;nan;102303.75;10323558;28;20038;-78
2024/01/30 07:19:10;;;;;;;39.08;20.95;;;;;;;5.40;nan;102270.13;10318373;28;20039;-77
2024/01/30 07:24:10;;;;;;;28.83;19.73;;;;;;;5.34;nan;102264.56;10300292;28;20034;-77
2024/01/30 07:29:11;;;;;;;33.42;20.63;;;;;;;5.44;nan;102296.03;10309055;28;20046;-78
2024/01/30 07:34:11;;;;;;;33.50;21.58;;;;;;;5.48;nan;102299.25;10312786;28;20062;-78
2024/01/30 07:39:12;;;;;;;33.03;20.08;;;;;;;5.42;nan;102298.09;10315722;28;20034;-78
2024/01/30 07:44:12;;;;;;;30.08;19.73;;;;;;;5.50;nan;102326.38;10308971;28;20085;-78
2024/01/30 07:49:14;;;;;;;31.45;18.75;;;;;;;5.61;nan;102324.03;10308632;28;20063;-78
2024/01/30 07:54:14;;;;;;;35.55;19.75;;;;;;;5.65;nan;102321.78;10315791;28;20438;-78
2024/01/30 07:59:15;;;;;;;28.90;19.75;;;;;;;5.72;nan;102332.81;10322375;28;20049;-77
2024/01/30 08:04:15;;;;;;;29.48;19.23;;;;;;;5.83;nan;102335.94;10295426;28;20046;-78
2024/01/30 08:09:16;;;;;;;27.55;19.20;;;;;;;5.90;nan;102333.31;10300844;28;20046;-78
2024/01/30 08:14:16;;;;;;;30.13;17.75;;;;;;;5.95;nan;102338.25;10320846;28;20050;-77
2024/01/30 08:19:17;;;;;;;31.75;18.83;;;;;;;5.97;nan;102336.16;10315645;28;20030;-74
2024/01/30 08:24:17;;;;;;;25.92;16.63;;;;;;;5.66;nan;102288.81;10308769;28;20049;-77
2024/01/30 08:29:18;;;;;;;28.45;18.30;;;;;;;5.98;nan;102337.88;10307081;28;20073;-77
2024/01/30 08:34:18;;;;;;;24.90;17.92;;;;;;;6.02;nan;102347.41;10307571;28;20043;-78
2024/01/30 08:39:19;;;;;;;29.05;17.73;;;;;;;6.09;nan;102358.44;10315443;28;20493;-72
2024/01/30 08:44:19;;;;;;;27.45;17.02;;;;;;;6.18;nan;102355.44;10307658;28;25927;-78
2024/01/30 08:49:20;;;;;;;23.20;16.52;;;;;;;6.31;nan;102353.91;10304903;28;20552;-78
2024/01/30 08:54:20;;;;;;;26.77;15.10;;;;;;;6.55;nan;102350.88;10307662;28;20038;-78
2024/01/30 08:59:21;;;;;;;26.15;14.23;;;;;;;6.90;nan;102370.19;10285588;28;20039;-78
2024/01/30 09:04:21;;;;;;;19.02;12.88;;;;;;;7.08;nan;102356.94;10308441;28;20042;-77
2024/01/30 09:09:22;;;;;;;23.17;12.93;;;;;;;7.23;nan;102358.75;10308652;28;20090;-77
2024/01/30 09:14:23;;;;;;;19.25;12.10;;;;;;;7.43;nan;102387.19;10314093;28;20395;-77
2024/01/30 09:19:23;;;;;;;17.17;11.95;;;;;;;7.53;nan;102378.66;10312044;28;20067;-74
2024/01/30 09:24:24;;;;;;;19.65;12.60;;;;;;;7.66;nan;102377.91;10314578;28;20054;-76
2024/01/30 09:29:25;;;;;;;17.75;11.25;;;;;;;7.80;nan;102392.59;10300885;28;20053;-78
2024/01/30 09:34:25;;;;;;;16.08;11.27;;;;;;;7.93;nan;102391.84;10300708;28;20388;-77
2024/01/30 09:39:26;;;;;;;17.73;11.73;;;;;;;7.88;nan;102382.31;10303271;28;20031;-77
2024/01/30 09:44:26;;;;;;;14.52;10.30;;;;;;;7.85;nan;102388.22;10307554;28;20496;-78
2024/01/30 09:49:27;;;;;;;15.95;10.18;;;;;;;8.02;nan;102399.72;10299536;28;20042;-78
2024/01/30 09:54:30;;;;;;;16.30;11.27;;;;;;;8.16;nan;102391.56;10297090;28;20042;-77
2024/01/30 09:59:31;;;;;;;19.60;12.10;;;;;;;8.21;nan;102387.19;10303263;28;20435;-78
2024/01/30 10:04:32;;;;;;;17.90;11.50;;;;;;;8.25;nan;102391.22;10292790;28;20090;-77
2024/01/30 10:09:33;;;;;;;17.67;11.05;;;;;;;8.25;nan;102379.41;10278811;28;20043;-77
2024/01/30 10:14:34;;;;;;;17.45;12.00;;;;;;;8.43;nan;102395.34;10304077;28;20058;-77
2024/01/30 10:19:34;;;;;;;18.20;11.13;;;;;;;8.41;nan;102378.22;10295826;28;20043;-77
2024/01/30 10:24:35;;;;;;;13.02;9.30;;;;;;;8.67;nan;102389.34;10296583;28;20042;-77
2024/01/30 10:29:37;;;;;;;12.57;9.07;;;;;;;8.81;nan;102384.75;10277573;28;20122;-77
2024/01/30 10:34:37;;;;;;;13.88;10.25;;;;;;;8.76;nan;102375.44;10294073;28;20471;-74
2024/01/30 10:39:41;;;;;;;17.92;10.90;;;;;;;8.71;nan;102367.81;10301828;28;20077;-78
2024/01/30 10:45:15;;;;;;;18.88;10.85;;;;;;;8.81;nan;102390.25;10312236;28;20042;-77
2024/01/30 10:50:16;;;;;;;18.35;9.70;;;;;;;8.76;nan;102375.44;10294353;28;20039;-78
2024/01/30 10:55:16;;;;;;;17.90;10.50;;;;;;;8.79;nan;102380.53;10285849;28;20053;-78
2024/01/30 11:00:17;;;;;;;16.52;10.63;;;;;;;8.89;nan;102391.97;10286109;28;20050;-78
2024/01/30 11:05:27;;;;;;;17.52;10.70;;;;;;;8.52;nan;102316.44;10280052;28;20134;-78
2024/01/30 11:10:27;;;;;;;16.88;10.75;;;;;;;9.14;nan;102384.03;10314318;28;20050;-78
2024/01/30 11:15:28;;;;;;;21.13;11.23;;;;;;;9.12;nan;102364.16;10305142;28;20046;-78
2024/01/30 11:20:32;;;;;;;18.42;10.30;;;;;;;9.25;nan;102371.56;10300242;28;20042;-77
2024/01/30 11:25:32;;;;;;;20.60;10.80;;;;;;;9.26;nan;102374.09;10274207;28;20066;-79
2024/01/30 11:30:33;;;;;;;17.25;10.55;;;;;;;9.30;nan;102382.75;10305205;28;20035;-78
2024/01/30 11:35:42;;;;;;;19.73;10.27;;;;;;;9.22;nan;102358.22;10304488;28;20042;-78
2024/01/30 11:40:43;;;;;;;19.77;11.65;;;;;;;9.33;nan;102376.88;10293579;28;20103;-77
2024/01/30 11:45:44;;;;;;;18.33;10.52;;;;;;;9.36;nan;102376.44;10303084;28;20047;-78
2024/01/30 11:50:45;;;;;;;17.35;11.48;;;;;;;9.45;nan;102375.19;10300138;28;20550;-78
2024/01/30 11:55:52;;;;;;;16.92;10.23;;;;;;;9.39;nan;102359.53;10293963;28;20066;-77
2024/01/30 12:00:57;;;;;;;19.08;10.57;;;;;;;9.44;nan;102367.13;10312858;28;20038;-77
2024/01/30 12:05:58;;;;;;;20.65;10.93;;;;;;;9.39;nan;102351.28;10305235;28;20039;-78
2024/01/30 12:11:01;;;;;;;15.73;10.73;;;;;;;9.42;nan;102352.75;10296287;28;20057;-77
2024/01/30 12:16:01;;;;;;;18.25;11.57;;;;;;;9.43;nan;102369.06;10291882;28;20043;-78
2024/01/30 12:21:02;;;;;;;17.27;10.73;;;;;;;9.44;nan;102359.72;10294030;28;20043;-78
2024/01/30 12:26:03;;;;;;;20.15;11.85;;;;;;;9.45;nan;102361.44;10293003;28;20039;-79
2024/01/30 12:31:04;;;;;;;18.05;10.27;;;;;;;9.53;nan;102365.03;10291706;28;20098;-77
2024/01/30 12:36:04;;;;;;;20.30;11.65;;;;;;;9.53;nan;102368.66;10287457;28;20050;-78
2024/01/30 12:41:07;;;;;;;16.70;12.02;;;;;;;9.19;nan;102331.19;10295530;28;20136;-78
2024/01/30 12:46:07;;;;;;;23.27;11.00;;;;;;;9.33;nan;102387.84;10295974;28;20067;-77
2024/01/30 12:51:08;;;;;;;21.20;9.00;;;;;;;9.24;nan;102378.09;10293429;28;20066;-78
2024/01/30 12:56:08;;;;;;;24.17;7.88;;;;;;;9.27;nan;102388.69;10283743;28;20043;-76
2024/01/30 13:01:09;;;;;;;19.20;8.80;;;;;;;9.40;nan;102383.19;10292305;28;20039;-78
2024/01/30 13:06:10;;;;;;;14.77;7.03;;;;;;;9.43;nan;102388.28;10262218;28;20486;-79
2024/01/30 13:11:12;;;;;;;12.35;7.07;;;;;;;9.25;nan;102344.09;10297046;28;20035;-76
2024/01/30 13:16:12;;;;;;;14.55;5.72;;;;;;;9.36;nan;102372.84;10296724;28;20039;-78
2024/01/30 13:21:13;;;;;;;15.05;6.07;;;;;;;9.22;nan;102363.72;10311545;28;20034;-73
2024/01/30 13:26:13;;;;;;;9.13;4.07;;;;;;;9.24;nan;102367.09;10318088;28;20042;-77
2024/01/30 13:31:14;;;;;;;7.25;3.50;;;;;;;9.09;nan;102367.28;10280076;28;20050;-77
2024/01/30 13:36:15;;;;;;;1.92;1.33;;;;;;;9.07;nan;102383.13;10290489;28;20070;-86
2024/01/30 13:41:16;;;;;;;4.07;1.58;;;;;;;9.00;nan;102377.63;10302081;28;20054;-85
2024/01/30 13:46:17;;;;;;;2.72;1.20;;;;;;;8.98;nan;102385.22;10281215;28;20075;-85
2024/01/30 13:51:17;;;;;;;7.10;1.63;;;;;;;8.58;nan;102335.69;10296419;28;20087;-86
2024/01/30 13:56:18;;;;;;;4.60;1.05;;;;;;;8.84;nan;102398.06;10306286;28;20507;-86
2024/01/30 14:01:18;;;;;;;2.10;1.02;;;;;;;8.80;nan;102399.53;10308973;28;20043;-84
2024/01/30 14:06:18;;;;;;;1.75;0.70;;;;;;;8.80;nan;102376.72;10307201;28;20455;-74
2024/01/30 14:11:19;;;;;;;2.58;1.00;;;;;;;9.15;nan;102385.69;10286080;28;20145;-85
2024/01/30 14:16:19;;;;;;;2.92;0.98;;;;;;;9.16;nan;102392.06;10308322;28;20039;-86
2024/01/30 14:21:20;;;;;;;3.50;1.10;;;;;;;9.17;nan;102388.25;10308802;28;20050;-85
2024/01/30 14:26:21;;;;;;;1.85;1.00;;;;;;;9.25;nan;102399.03;10315745;28;20081;-85
2024/01/30 14:31:24;;;;;;;1.33;0.93;;;;;;;9.15;nan;102404.94;10303512;28;20058;-87
2024/01/30 14:36:27;;;;;;;4.45;1.35;;;;;;;9.04;nan;102400.88;10323390;28;20073;-85
2024/01/30 14:41:28;;;;;;;3.67;1.10;;;;;;;8.89;nan;102409.31;10292661;28;20049;-81
2024/01/30 14:46:29;;;;;;;2.85;1.40;;;;;;;8.75;nan;102407.56;10312547;28;20050;-79
2024/01/30 14:51:30;;;;;;;1.80;1.20;;;;;;;8.60;nan;102428.78;10297330;28;20455;-84
2024/01/30 14:56:30;;;;;;;3.88;2.15;;;;;;;8.51;nan;102424.53;10303429;28;20050;-82
2024/01/30 15:01:30;;;;;;;4.53;1.70;;;;;;;8.42;nan;102432.09;10290382;28;20495;-81
2024/01/30 15:06:31;;;;;;;3.80;1.67;;;;;;;8.29;nan;102430.91;10319842;28;20402;-82
2024/01/30 15:11:33;;;;;;;4.93;2.35;;;;;;;8.10;nan;102437.09;10292691;28;20042;-82
2024/01/30 15:16:33;;;;;;;3.28;2.38;;;;;;;7.94;nan;102420.94;10290746;28;20039;-80
2024/01/30 15:21:33;;;;;;;4.82;3.00;;;;;;;7.89;nan;102441.56;10293555;28;20058;-82
2024/01/30 15:26:34;;;;;;;6.05;3.03;;;;;;;7.83;nan;102436.91;10271125;28;20035;-79
2024/01/30 15:31:34;;;;;;;9.98;3.40;;;;;;;7.49;nan;102404.75;10304145;28;20483;-80
2024/01/30 15:36:35;;;;;;;6.45;2.55;;;;;;;7.61;nan;102430.59;10293838;28;20422;-83
2024/01/30 15:41:36;;;;;;;4.43;2.67;;;;;;;7.70;nan;102466.94;10286130;28;20038;-80
2024/01/30 15:46:36;;;;;;;2.50;2.30;;;;;;;7.38;nan;102413.47;10301028;28;20051;-80
2024/01/30 15:51:37;;;;;;;4.63;3.25;;;;;;;7.60;nan;102477.38;10298465;28;20067;-81
2024/01/30 15:56:37;;;;;;;6.47;3.58;;;;;;;7.59;nan;102475.69;10313152;28;20063;-82
2024/01/30 16:01:38;;;;;;;4.60;2.72;;;;;;;7.55;nan;102485.34;10295948;28;20038;-81
2024/01/30 16:06:38;;;;;;;3.20;2.90;;;;;;;7.54;nan;102486.38;10308642;28;20038;-81
2024/01/30 16:11:39;;;;;;;5.45;3.90;;;;;;;7.37;nan;102470.19;10293103;28;20046;-81
2024/01/30 16:16:39;;;;;;;6.03;4.93;;;;;;;7.28;nan;102476.84;10290205;28;20031;-73
2024/01/30 16:21:43;;;;;;;7.78;5.50;;;;;;;7.26;nan;102481.66;10288491;28;20043;-79
2024/01/30 16:26:44;;;;;;;9.25;6.22;;;;;;;7.17;nan;102480.06;10300114;28;20102;-79
2024/01/30 16:31:44;;;;;;;8.38;6.85;;;;;;;7.20;nan;102487.91;10288473;28;20047;-80
2024/01/30 16:36:45;;;;;;;8.35;7.35;;;;;;;7.16;nan;102490.16;10288212;28;20047;-78
2024/01/30 16:41:45;;;;;;;14.43;8.80;;;;;;;7.07;nan;102486.69;10304771;28;20344;-81
2024/01/30 16:46:45;;;;;;;12.18;8.25;;;;;;;7.02;nan;102500.09;10289221;28;20035;-82
2024/01/30 16:51:46;;;;;;;11.13;9.98;;;;;;;7.02;nan;102499.25;10290375;28;20105;-80
2024/01/30 16:56:49;;;;;;;11.82;10.07;;;;;;;7.03;nan;102499.06;10314670;28;20047;-81
2024/01/30 17:01:50;;;;;;;13.75;10.23;;;;;;;6.94;nan;102502.94;10285668;28;20597;-83
2024/01/30 17:06:53;;;;;;;11.07;9.18;;;;;;;6.94;nan;102513.88;10285746;28;20094;-81
2024/01/30 17:11:53;;;;;;;8.32;7.03;;;;;;;6.89;nan;102516.38;10290236;28;20030;-81
2024/01/30 17:16:54;;;;;;;8.20;6.70;;;;;;;6.90;nan;102548.16;10305489;28;20043;-82
2024/01/30 17:21:54;;;;;;;11.73;8.48;;;;;;;6.63;nan;102501.25;10313705;28;20045;-80
2024/01/30 17:26:55;;;;;;;13.40;11.07;;;;;;;6.84;nan;102552.53;10294706;28;20059;-80
2024/01/30 17:31:55;;;;;;;16.60;12.38;;;;;;;6.76;nan;102562.69;10294715;28;20046;-80
2024/01/30 17:36:56;;;;;;;17.95;13.80;;;;;;;6.65;nan;102567.59;10284791;28;20039;-80
2024/01/30 17:41:56;;;;;;;9.85;8.10;;;;;;;6.74;nan;102597.63;10288184;28;20924;-82
2024/01/30 17:46:57;;;;;;;16.30;11.65;;;;;;;6.69;nan;102600.06;10282060;28;20039;-81
2024/01/30 17:51:57;;;;;;;15.73;10.20;;;;;;;6.53;nan;102591.00;10301163;28;20035;-79
2024/01/30 17:56:58;;;;;;;12.35;9.48;;;;;;;6.63;nan;102618.94;10294162;28;20039;-80
2024/01/30 18:01:58;;;;;;;17.05;12.18;;;;;;;6.60;nan;102633.00;10304404;28;20054;-81
2024/01/30 18:06:59;;;;;;;12.60;8.70;;;;;;;6.52;nan;102635.81;10318986;28;20042;-75
2024/01/30 18:11:59;;;;;;;9.10;6.72;;;;;;;6.29;nan;102630.34;10320185;28;20085;-83
2024/01/30 18:17:00;;;;;;;11.25;7.30;;;;;;;6.35;nan;102651.50;10317260;28;20066;-81
2024/01/30 18:22:00;;;;;;;12.95;8.05;;;;;;;6.28;nan;102660.63;10325315;28;20045;-82
2024/01/30 18:27:00;;;;;;;10.13;8.52;;;;;;;6.23;nan;102658.44;10300870;28;20462;-83
2024/01/30 18:32:01;;;;;;;10.77;8.23;;;;;;;6.22;nan;102674.00;10323593;28;20042;-85
2024/01/30 18:37:02;;;;;;;13.18;10.02;;;;;;;6.21;nan;102693.31;10299647;28;20035;-84
2024/01/30 18:42:03;;;;;;;17.58;10.98;;;;;;;6.10;nan;102680.91;10320513;28;20043;-84
2024/01/30 18:47:03;;;;;;;16.27;9.40;;;;;;;6.10;nan;102697.31;10327457;28;20102;-82
2024/01/30 18:52:05;;;;;;;24.52;11.10;;;;;;;6.06;nan;102702.28;10321498;28;20553;-83
2024/01/30 18:57:05;;;;;;;27.35;9.75;;;;;;;5.97;nan;102702.50;10313579;28;20066;-82
2024/01/30 19:02:06;;;;;;;15.15;7.80;;;;;;;5.95;nan;102704.56;10310285;28;20361;-83
2024/01/30 19:07:06;;;;;;;19.42;6.78;;;;;;;5.94;nan;102725.56;10310714;28;20039;-85
2024/01/30 19:12:07;;;;;;;9.07;6.72;;;;;;;5.80;nan;102724.41;10317961;28;20053;-85
2024/01/30 19:17:07;;;;;;;17.27;6.63;;;;;;;5.83;nan;102748.69;10320718;28;20034;-83
2024/01/30 19:22:08;;;;;;;10.68;5.95;;;;;;;5.81;nan;102761.66;10322629;28;20063;-83
2024/01/30 19:27:09;;;;;;;9.80;6.40;;;;;;;5.72;nan;102765.44;10326785;28;20085;-81
2024/01/30 19:32:09;;;;;;;14.80;6.75;;;;;;;5.51;nan;102746.03;10326835;28;20097;-85
2024/01/30 19:37:10;;;;;;;11.40;7.10;;;;;;;5.69;nan;102784.09;10323809;28;20039;-85
2024/01/30 19:42:10;;;;;;;16.15;8.25;;;;;;;5.71;nan;102798.44;10318729;28;20046;-84
2024/01/30 19:47:10;;;;;;;22.77;7.20;;;;;;;5.66;nan;102802.53;10316448;28;20127;-84
2024/01/30 19:52:12;;;;;;;20.42;7.13;;;;;;;5.61;nan;102818.59;10320440;28;20042;-85
2024/01/30 19:57:12;;;;;;;17.58;7.40;;;;;;;5.57;nan;102827.31;10320069;28;20407;-85
2024/01/30 20:02:18;;;;;;;12.68;7.13;;;;;;;5.53;nan;102820.50;10315736;28;20046;-84
2024/01/30 20:07:20;;;;;;;11.82;6.18;;;;;;;5.57;nan;102843.72;10293144;28;20105;-84
2024/01/30 20:12:20;;;;;;;19.45;6.53;;;;;;;5.57;nan;102850.03;10322862;28;20113;-85
2024/01/30 20:17:21;;;;;;;22.35;7.18;;;;;;;5.44;nan;102847.81;10319908;28;20479;-84
2024/01/30 20:22:21;;;;;;;16.05;7.78;;;;;;;5.45;nan;102854.97;10318549;28;20503;-84
2024/01/30 20:27:22;;;;;;;11.30;6.32;;;;;;;5.38;nan;102856.69;10321470;28;20603;-83
2024/01/30 20:32:22;;;;;;;29.15;6.45;;;;;;;5.39;nan;102882.13;10319730;28;20038;-83
2024/01/30 20:37:24;;;;;;;14.10;5.05;;;;;;;5.28;nan;102902.44;10317081;28;20034;-84
2024/01/30 20:42:25;;;;;;;18.02;7.00;;;;;;;5.05;nan;102867.59;10302592;28;20486;-84
2024/01/30 20:47:25;;;;;;;25.92;5.57;;;;;;;5.34;nan;102920.88;10320373;28;20047;-84
2024/01/30 20:52:26;;;;;;;10.77;4.53;;;;;;;5.41;nan;102954.69;10321795;28;20042;-78
2024/01/30 20:57:26;;;;;;;13.40;5.03;;;;;;;5.37;nan;102945.13;10320109;28;20530;-85
2024/01/30 21:02:27;;;;;;;16.10;5.53;;;;;;;5.40;nan;102963.91;10315371;28;20042;-85
2024/01/30 21:07:27;;;;;;;13.57;4.93;;;;;;;5.35;nan;102968.16;10308588;28;20038;-83
2024/01/30 21:12:28;;;;;;;13.98;4.32;;;;;;;5.30;nan;102965.94;10316026;28;20039;-84
2024/01/30 21:17:28;;;;;;;10.60;4.15;;;;;;;5.26;nan;102989.16;10315257;28;20342;-86
2024/01/30 21:22:29;;;;;;;14.73;4.93;;;;;;;5.12;nan;102959.75;10312830;28;20045;-83
2024/01/30 21:27:30;;;;;;;13.90;4.05;;;;;;;5.21;nan;102997.00;10275072;28;20035;-86
2024/01/30 21:32:30;;;;;;;9.38;4.22;;;;;;;5.16;nan;102993.91;10312536;28;20045;-85
2024/01/30 21:37:33;;;;;;;11.10;3.95;;;;;;;5.11;nan;103007.22;10313423;28;20294;-84
2024/01/30 21:42:33;;;;;;;5.47;3.72;;;;;;;4.97;nan;102993.16;10313871;28;20106;-85
2024/01/30 21:47:33;;;;;;;8.35;3.92;;;;;;;4.74;nan;102972.94;10306001;28;20043;-85
2024/01/30 21:52:34;;;;;;;10.50;3.97;;;;;;;5.03;nan;103022.53;10313439;28;20043;-75
2024/01/30 21:57:34;;;;;;;8.07;3.20;;;;;;;4.98;nan;103022.19;10294888;28;20061;-84
2024/01/30 22:02:35;;;;;;;7.10;3.53;;;;;;;4.92;nan;103024.69;10305364;28;20038;-84
2024/01/30 22:07:36;;;;;;;8.55;2.97;;;;;;;4.86;nan;103045.31;10293803;28;20042;-84
2024/01/30 22:12:36;;;;;;;6.30;2.88;;;;;;;4.86;nan;103048.06;10299422;28;20039;-86
2024/01/30 22:17:37;;;;;;;5.20;2.28;;;;;;;4.82;nan;103046.69;10315584;28;20046;-86
2024/01/30 22:22:37;;;;;;;3.35;3.00;;;;;;;4.78;nan;103053.47;10314781;28;20045;-83
2024/01/30 22:27:40;;;;;;;3.38;3.10;;;;;;;4.59;nan;103052.69;10314574;28;20049;-84
2024/01/30 22:32:41;;;;;;;4.35;3.70;;;;;;;4.54;nan;103055.03;10308660;28;20121;-84
2024/01/30 22:37:41;;;;;;;3.42;3.22;;;;;;;4.50;nan;103050.91;10312279;28;20050;-86
2024/01/30 22:42:42;;;;;;;5.13;3.10;;;;;;;4.50;nan;103069.16;10306416;28;20042;-86
2024/01/30 22:47:44;;;;;;;8.45;4.22;;;;;;;4.41;nan;103060.06;10309951;28;20035;-86
2024/01/30 22:52:45;;;;;;;9.93;3.42;;;;;;;4.41;nan;103070.97;10303483;28;20075;-85
2024/01/30 22:57:46;;;;;;;5.78;4.10;;;;;;;4.37;nan;103070.44;10315840;28;20125;-85
2024/01/30 23:02:46;;;;;;;6.03;4.65;;;;;;;4.41;nan;103098.25;10290931;28;20064;-87
2024/01/30 23:07:47;;;;;;;7.60;4.93;;;;;;;4.37;nan;103091.41;10316124;28;20046;-75
2024/01/30 23:12:48;;;;;;;4.97;4.57;;;;;;;4.25;nan;103102.53;10322780;28;20053;-84
2024/01/30 23:17:48;;;;;;;8.90;4.60;;;;;;;4.08;nan;103103.41;10320009;28;20593;-86
2024/01/30 23:22:49;;;;;;;10.27;4.50;;;;;;;3.87;nan;103086.53;10320506;28;20101;-85
2024/01/30 23:27:49;;;;;;;5.97;4.72;;;;;;;3.95;nan;103114.72;10305177;28;20062;-85
2024/01/30 23:32:53;;;;;;;6.97;4.70;;;;;;;3.97;nan;103117.28;10316716;28;20030;-84